createdAt,value
2023-10-28T00:00:03.916Z,98386.00
2023-10-28T00:02:32.653Z,98382.00
2023-10-28T00:05:02.806Z,98376.00
2023-10-28T00:07:31.532Z,98373.00
2023-10-28T00:10:00.229Z,98375.00
2023-10-28T00:12:29.530Z,98387.00
2023-10-28T00:14:58.231Z,98384.00
2023-10-28T00:17:27.010Z,98391.00
2023-10-28T00:19:56.255Z,98391.00
2023-10-28T00:22:26.410Z,98382.00
2023-10-28T00:24:55.108Z,98391.00
2023-10-28T00:27:23.836Z,98390.00
2023-10-28T00:29:53.774Z,98394.00
2023-10-28T00:32:23.927Z,98392.00
2023-10-28T00:34:52.754Z,98401.00
2023-10-28T00:37:21.606Z,98398.00
2023-10-28T00:39:52.149Z,98404.00
2023-10-28T00:42:21.752Z,98406.00
2023-10-28T00:44:50.560Z,98409.00
2023-10-28T00:47:19.440Z,98410.00
2023-10-28T00:49:48.450Z,98405.00
2023-10-28T00:52:18.662Z,98403.00
2023-10-28T00:54:49.102Z,98413.00
2023-10-28T00:57:20.523Z,98417.00
2023-10-28T00:59:49.416Z,98413.00
2023-10-28T01:02:18.985Z,98406.00
2023-10-28T01:04:48.064Z,98411.00
2023-10-28T01:07:16.846Z,98401.00
2023-10-28T01:09:49.189Z,98407.00
2023-10-28T01:12:19.324Z,98411.00
2023-10-28T01:14:48.058Z,98405.00
2023-10-28T01:17:16.791Z,98413.00
2023-10-28T01:19:45.692Z,98413.00
2023-10-28T01:22:16.050Z,98409.00
2023-10-28T01:24:44.778Z,98406.00
2023-10-28T01:27:13.569Z,98411.00
2023-10-28T01:29:42.709Z,98415.00
2023-10-28T01:32:11.623Z,98411.00
2023-10-28T01:34:50.393Z,98407.00
2023-10-28T01:37:21.669Z,98412.00
2023-10-28T01:39:53.201Z,98420.00
2023-10-28T01:42:23.405Z,98415.00
2023-10-28T01:44:52.249Z,98420.00
2023-10-28T01:47:20.991Z,98416.00
2023-10-28T01:49:50.049Z,98420.00
2023-10-28T01:52:20.177Z,98424.00
2023-10-28T01:54:49.040Z,98422.00
2023-10-28T01:57:17.790Z,98424.00
2023-10-28T01:59:46.871Z,98428.00
2023-10-28T02:02:15.804Z,98437.00
2023-10-28T02:04:44.593Z,98424.00
2023-10-28T02:07:13.309Z,98433.00
2023-10-28T02:09:43.593Z,98434.00
2023-10-28T02:12:12.960Z,98430.00
2023-10-28T02:14:41.866Z,98434.00
2023-10-28T02:17:11.335Z,98450.00
2023-10-28T02:19:40.566Z,98449.00
2023-10-28T02:22:13.936Z,98448.00
2023-10-28T02:24:44.529Z,98442.00
2023-10-28T02:27:13.452Z,98436.00
2023-10-28T02:29:42.329Z,98440.00
2023-10-28T02:32:12.070Z,98452.00
2023-10-28T02:34:42.664Z,98452.00
2023-10-28T02:37:12.135Z,98454.00
2023-10-28T02:39:40.846Z,98446.00
2023-10-28T02:42:11.002Z,98454.00
2023-10-28T02:44:39.743Z,98458.00
2023-10-28T02:47:08.733Z,98456.00
2023-10-28T02:49:38.945Z,98454.00
2023-10-28T02:52:08.418Z,98460.00
2023-10-28T02:54:37.963Z,98460.00
2023-10-28T02:57:06.743Z,98457.00
2023-10-28T02:59:36.825Z,98460.00
2023-10-28T03:02:05.860Z,98459.00
2023-10-28T03:04:35.642Z,98458.00
2023-10-28T03:07:04.526Z,98461.00
2023-10-28T03:09:33.280Z,98451.00
2023-10-28T03:12:02.018Z,98466.00
2023-10-28T03:14:30.775Z,98445.00
2023-10-28T03:17:01.342Z,98444.00
2023-10-28T03:19:30.129Z,98448.00
2023-10-28T03:21:58.819Z,98443.00
2023-10-28T03:24:27.665Z,98452.00
2023-10-28T03:26:56.527Z,98456.00
2023-10-28T03:29:25.211Z,98460.00
2023-10-28T03:31:53.985Z,98465.00
2023-10-28T03:34:24.113Z,98468.00
2023-10-28T03:36:52.944Z,98470.00
2023-10-28T03:39:21.687Z,98467.00
2023-10-28T03:41:50.691Z,98467.00
2023-10-28T03:44:20.963Z,98466.00
2023-10-28T03:46:50.873Z,98470.00
2023-10-28T03:49:19.614Z,98478.00
2023-10-28T03:51:49.764Z,98468.00
2023-10-28T03:54:18.507Z,98468.00
2023-10-28T03:56:47.287Z,98482.00
2023-10-28T03:59:16.927Z,98475.00
2023-10-28T04:01:45.758Z,98475.00
2023-10-28T04:04:14.572Z,98477.00
2023-10-28T04:06:43.314Z,98486.00
2023-10-28T04:09:15.242Z,98483.00
2023-10-28T04:11:43.967Z,98478.00
2023-10-28T04:14:12.748Z,98482.00
2023-10-28T04:16:41.558Z,98490.00
2023-10-28T04:19:10.328Z,98496.00
2023-10-28T04:21:40.057Z,98497.00
2023-10-28T04:24:11.043Z,98497.00
2023-10-28T04:26:41.143Z,98493.00
2023-10-28T04:29:10.041Z,98495.00
2023-10-28T04:31:39.353Z,98494.00
2023-10-28T04:34:09.118Z,98491.00
2023-10-28T04:36:38.485Z,98498.00
2023-10-28T04:39:07.203Z,98497.00
2023-10-28T04:41:35.997Z,98492.00
2023-10-28T04:44:06.609Z,98507.00
2023-10-28T04:46:35.345Z,98496.00
2023-10-28T04:49:04.075Z,98503.00
2023-10-28T04:51:32.857Z,98499.00
2023-10-28T04:54:01.555Z,98508.00
2023-10-28T04:56:30.290Z,98504.00
2023-10-28T04:58:59.080Z,98514.00
2023-10-28T05:01:30.632Z,98511.00
2023-10-28T05:03:59.461Z,98502.00
2023-10-28T05:06:28.202Z,98505.00
2023-10-28T05:08:56.870Z,98505.00
2023-10-28T05:11:26.748Z,98508.00
2023-10-28T05:13:55.640Z,98504.00
2023-10-28T05:16:25.027Z,98506.00
2023-10-28T05:18:55.216Z,98506.00
2023-10-28T05:21:24.005Z,98506.00
2023-10-28T05:23:53.224Z,98513.00
2023-10-28T05:26:22.136Z,98515.00
2023-10-28T05:28:53.088Z,98506.00
2023-10-28T05:31:21.969Z,98519.00
2023-10-28T05:33:50.761Z,98526.00
2023-10-28T05:36:20.905Z,98528.00
2023-10-28T05:38:49.718Z,98526.00
2023-10-28T05:41:18.524Z,98531.00
2023-10-28T05:43:47.425Z,98545.00
2023-10-28T05:46:16.335Z,98529.00
2023-10-28T05:48:45.157Z,98542.00
2023-10-28T05:51:13.983Z,98545.00
2023-10-28T05:53:44.073Z,98554.00
2023-10-28T05:56:13.102Z,98561.00
2023-10-28T05:58:41.908Z,98559.00
2023-10-28T06:01:10.685Z,98568.00
2023-10-28T06:03:39.891Z,98565.00
2023-10-28T06:06:09.928Z,98563.00
2023-10-28T06:08:39.777Z,98566.00
2023-10-28T06:11:10.756Z,98575.00
2023-10-28T06:13:39.619Z,98590.00
2023-10-28T06:16:08.729Z,98578.00
2023-10-28T06:18:37.534Z,98593.00
2023-10-28T06:21:06.760Z,98590.00
2023-10-28T06:23:36.017Z,98591.00
2023-10-28T06:26:04.850Z,98599.00
2023-10-28T06:28:35.074Z,98607.00
2023-10-28T06:31:03.905Z,98601.00
2023-10-28T06:33:33.601Z,98598.00
2023-10-28T06:36:02.387Z,98607.00
2023-10-28T06:38:31.537Z,98614.00
2023-10-28T06:41:00.274Z,98610.00
2023-10-28T06:43:29.174Z,98609.00
2023-10-28T06:45:59.770Z,98610.00
2023-10-28T06:48:28.692Z,98616.00
2023-10-28T06:50:57.468Z,98618.00
2023-10-28T06:53:26.257Z,98622.00
2023-10-28T06:55:55.061Z,98626.00
2023-10-28T06:58:23.987Z,98619.00
2023-10-28T07:00:52.698Z,98624.00
2023-10-28T07:03:22.861Z,98623.00
2023-10-28T07:05:51.684Z,98630.00
2023-10-28T07:08:21.641Z,98631.00
2023-10-28T07:10:51.215Z,98634.00
2023-10-28T07:13:19.999Z,98626.00
2023-10-28T07:15:48.800Z,98632.00
2023-10-28T07:18:19.395Z,98635.00
2023-10-28T07:20:49.545Z,98651.00
2023-10-28T07:23:18.335Z,98640.00
2023-10-28T07:25:47.240Z,98641.00
2023-10-28T07:28:16.021Z,98646.00
2023-10-28T07:30:49.654Z,98655.00
2023-10-28T07:33:18.432Z,98656.00
2023-10-28T07:35:49.692Z,98647.00
2023-10-28T07:38:18.584Z,98659.00
2023-10-28T07:40:48.040Z,98653.00
2023-10-28T07:43:19.013Z,98661.00
2023-10-28T07:45:48.179Z,98663.00
2023-10-28T07:48:17.306Z,98664.00
2023-10-28T07:50:46.717Z,98671.00
2023-10-28T07:53:18.319Z,98679.00
2023-10-28T07:55:47.307Z,98679.00
2023-10-28T07:58:16.402Z,98684.00
2023-10-28T08:00:45.614Z,98689.00
2023-10-28T08:03:14.955Z,98693.00
2023-10-28T08:05:45.572Z,98694.00
2023-10-28T08:08:15.845Z,98699.00
2023-10-28T08:10:45.344Z,98695.00
2023-10-28T08:13:14.415Z,98704.00
2023-10-28T08:15:43.432Z,98704.00
2023-10-28T08:18:15.648Z,98712.00
2023-10-28T08:20:45.618Z,98723.00
2023-10-28T08:23:18.497Z,98713.00
2023-10-28T08:25:48.073Z,98716.00
2023-10-28T08:28:18.199Z,98725.00
2023-10-28T08:30:47.485Z,98733.00
2023-10-28T08:33:16.512Z,98729.00
2023-10-28T08:35:45.448Z,98731.00
2023-10-28T08:38:18.123Z,98740.00
2023-10-28T08:40:48.088Z,98735.00
2023-10-28T08:43:17.026Z,98741.00
2023-10-28T08:45:46.816Z,98745.00
2023-10-28T08:48:17.634Z,98749.00
2023-10-28T08:50:54.878Z,98747.00
2023-10-28T08:53:25.127Z,98743.00
2023-10-28T08:55:55.223Z,98747.00
2023-10-28T08:58:24.656Z,98751.00
2023-10-28T09:00:58.176Z,98767.00
2023-10-28T09:03:29.347Z,98758.00
2023-10-28T09:06:00.546Z,98766.00
2023-10-28T09:08:30.942Z,98772.00
2023-10-28T09:11:00.145Z,98773.00
2023-10-28T09:13:29.196Z,98775.00
2023-10-28T09:15:58.017Z,98778.00
2023-10-28T09:18:26.967Z,98779.00
2023-10-28T09:20:55.865Z,98780.00
2023-10-28T09:23:26.408Z,98796.00
2023-10-28T09:25:57.176Z,98785.00
2023-10-28T09:28:26.598Z,98785.00
2023-10-28T09:30:55.724Z,98794.00
2023-10-28T09:33:24.995Z,98792.00
2023-10-28T09:35:55.970Z,98799.00
2023-10-28T09:38:25.350Z,98796.00
2023-10-28T09:40:56.227Z,98807.00
2023-10-28T09:43:26.286Z,98812.00
2023-10-28T09:45:55.880Z,98813.00
2023-10-28T09:48:25.391Z,98821.00
2023-10-28T09:50:55.025Z,98827.00
2023-10-28T09:53:34.805Z,98831.00
2023-10-28T09:56:06.636Z,98828.00
2023-10-28T09:58:39.794Z,98813.00
2023-10-28T10:01:19.200Z,98826.00
2023-10-28T10:04:00.527Z,98820.00
2023-10-28T10:06:30.173Z,98825.00
2023-10-28T10:08:59.306Z,98819.00
2023-10-28T10:11:30.408Z,98815.00
2023-10-28T10:14:10.916Z,98815.00
2023-10-28T10:16:48.623Z,98821.00
2023-10-28T10:19:23.616Z,98818.00
2023-10-28T10:21:54.089Z,98814.00
2023-10-28T10:24:23.842Z,98830.00
2023-10-28T10:27:01.079Z,98826.00
2023-10-28T10:29:42.594Z,98822.00
2023-10-28T10:32:19.021Z,98826.00
2023-10-28T10:34:50.878Z,98826.00
2023-10-28T10:37:26.708Z,98826.00
2023-10-28T10:39:58.036Z,98820.00
2023-10-28T10:42:29.210Z,98814.00
2023-10-28T10:45:02.340Z,98820.00
2023-10-28T10:47:31.769Z,98831.00
2023-10-28T10:50:01.615Z,98824.00
2023-10-28T10:52:31.498Z,98827.00
2023-10-28T10:55:05.964Z,98828.00
2023-10-28T10:57:38.101Z,98833.00
2023-10-28T11:00:14.006Z,98833.00
2023-10-28T11:02:43.614Z,98829.00
2023-10-28T11:05:13.830Z,98840.00
2023-10-28T11:07:44.851Z,98834.00
2023-10-28T11:10:13.755Z,98847.00
2023-10-28T11:12:44.235Z,98844.00
2023-10-28T11:15:13.254Z,98844.00
2023-10-28T11:17:42.770Z,98850.00
2023-10-28T11:20:20.610Z,98844.00
2023-10-28T11:22:50.075Z,98851.00
2023-10-28T11:25:21.543Z,98838.00
2023-10-28T11:27:54.056Z,98839.00
2023-10-28T11:30:22.956Z,98842.00
2023-10-28T11:32:56.515Z,98833.00
2023-10-28T11:35:26.175Z,98828.00
2023-10-28T11:37:55.319Z,98823.00
2023-10-28T11:40:24.880Z,98831.00
2023-10-28T11:42:56.553Z,98825.00
2023-10-28T11:45:25.538Z,98830.00
2023-10-28T11:47:54.461Z,98825.00
2023-10-28T11:50:23.716Z,98830.00
2023-10-28T11:52:52.455Z,98827.00
2023-10-28T11:55:21.176Z,98829.00
2023-10-28T11:57:51.257Z,98834.00
2023-10-28T12:00:21.462Z,98839.00
2023-10-28T12:02:50.318Z,98827.00
2023-10-28T12:05:19.136Z,98845.00
2023-10-28T12:07:48.004Z,98840.00
2023-10-28T12:10:16.883Z,98845.00
2023-10-28T12:12:45.643Z,98843.00
2023-10-28T12:15:14.488Z,98844.00
2023-10-28T12:17:45.702Z,98849.00
2023-10-28T12:20:15.913Z,98851.00
2023-10-28T12:22:45.028Z,98848.00
2023-10-28T12:25:15.342Z,98851.00
2023-10-28T12:27:45.245Z,98850.00
2023-10-28T12:30:14.201Z,98850.00
2023-10-28T12:32:44.379Z,98849.00
2023-10-28T12:35:14.877Z,98844.00
2023-10-28T12:37:43.811Z,98846.00
2023-10-28T12:40:13.767Z,98849.00
2023-10-28T12:42:42.640Z,98850.00
2023-10-28T12:45:12.894Z,98851.00
2023-10-28T12:47:43.244Z,98851.00
2023-10-28T12:50:15.979Z,98851.00
2023-10-28T12:52:44.752Z,98847.00
2023-10-28T12:55:13.821Z,98859.00
2023-10-28T12:57:42.556Z,98847.00
2023-10-28T13:00:12.552Z,98847.00
2023-10-28T13:02:41.416Z,98858.00
2023-10-28T13:05:11.893Z,98870.00
2023-10-28T13:07:40.649Z,98870.00
2023-10-28T13:10:11.895Z,98870.00
2023-10-28T13:12:40.716Z,98865.00
2023-10-28T13:15:10.194Z,98874.00
2023-10-28T13:17:41.084Z,98879.00
2023-10-28T13:20:13.211Z,98874.00
2023-10-28T13:22:44.899Z,98877.00
2023-10-28T13:25:13.888Z,98886.00
2023-10-28T13:27:42.654Z,98880.00
2023-10-28T13:30:13.172Z,98886.00
2023-10-28T13:32:54.708Z,98881.00
2023-10-28T13:35:26.797Z,98873.00
2023-10-28T13:37:55.609Z,98875.00
2023-10-28T13:40:24.869Z,98879.00
2023-10-28T13:42:53.582Z,98876.00
2023-10-28T13:45:22.867Z,98868.00
2023-10-28T13:47:52.616Z,98872.00
2023-10-28T13:50:21.690Z,98871.00
2023-10-28T13:52:52.918Z,98881.00
2023-10-28T13:55:21.675Z,98867.00
2023-10-28T13:57:50.481Z,98881.00
2023-10-28T14:00:19.655Z,98879.00
2023-10-28T14:02:48.545Z,98878.00
2023-10-28T14:05:17.482Z,98884.00
2023-10-28T14:07:46.271Z,98891.00
2023-10-28T14:10:16.484Z,98883.00
2023-10-28T14:12:45.288Z,98873.00
2023-10-28T14:15:14.833Z,98879.00
2023-10-28T14:17:43.679Z,98880.00
2023-10-28T14:20:13.241Z,98872.00
2023-10-28T14:22:42.038Z,98881.00
2023-10-28T14:25:18.377Z,98879.00
2023-10-28T14:27:48.651Z,98874.00
2023-10-28T14:30:17.473Z,98871.00
2023-10-28T14:32:46.330Z,98877.00
2023-10-28T14:35:15.190Z,98887.00
2023-10-28T14:37:43.963Z,98891.00
2023-10-28T14:40:13.582Z,98886.00
2023-10-28T14:42:44.603Z,98880.00
2023-10-28T14:45:14.864Z,98884.00
2023-10-28T14:47:44.960Z,98880.00
2023-10-28T14:50:15.043Z,98877.00
2023-10-28T14:52:44.210Z,98883.00
2023-10-28T14:55:14.827Z,98884.00
2023-10-28T14:57:53.866Z,98890.00
2023-10-28T15:00:35.936Z,98894.00
2023-10-28T15:03:05.820Z,98900.00
2023-10-28T15:05:35.214Z,98896.00
2023-10-28T15:08:04.185Z,98899.00
2023-10-28T15:10:32.992Z,98890.00
2023-10-28T15:13:01.817Z,98902.00
2023-10-28T15:15:36.136Z,98899.00
2023-10-28T15:18:06.357Z,98899.00
2023-10-28T15:20:35.541Z,98895.00
2023-10-28T15:23:06.264Z,98896.00
2023-10-28T15:25:35.322Z,98900.00
2023-10-28T15:28:04.553Z,98906.00
2023-10-28T15:30:36.897Z,98901.00
2023-10-28T15:33:07.714Z,98910.00
2023-10-28T15:35:39.686Z,98907.00
2023-10-28T15:38:08.647Z,98909.00
2023-10-28T15:40:40.163Z,98904.00
2023-10-28T15:43:08.900Z,98910.00
2023-10-28T15:45:40.130Z,98903.00
2023-10-28T15:48:09.636Z,98899.00
2023-10-28T15:50:38.690Z,98908.00
2023-10-28T15:53:07.840Z,98913.00
2023-10-28T15:55:36.615Z,98905.00
2023-10-28T15:58:05.479Z,98907.00
2023-10-28T16:00:34.200Z,98914.00
2023-10-28T16:03:04.776Z,98915.00
2023-10-28T16:05:33.701Z,98928.00
2023-10-28T16:08:02.622Z,98922.00
2023-10-28T16:10:31.576Z,98923.00
2023-10-28T16:13:00.457Z,98923.00
2023-10-28T16:15:29.925Z,98923.00
2023-10-28T16:17:59.082Z,98927.00
2023-10-28T16:20:30.432Z,98924.00
2023-10-28T16:22:59.357Z,98924.00
2023-10-28T16:25:28.310Z,98923.00
2023-10-28T16:27:57.968Z,98926.00
2023-10-28T16:30:28.858Z,98929.00
2023-10-28T16:32:58.255Z,98934.00
2023-10-28T16:35:28.721Z,98932.00
2023-10-28T16:37:58.058Z,98939.00
2023-10-28T16:40:26.808Z,98931.00
2023-10-28T16:42:55.632Z,98940.00
2023-10-28T16:45:27.007Z,98947.00
2023-10-28T16:47:55.991Z,98954.00
2023-10-28T16:50:25.344Z,98939.00
2023-10-28T16:52:55.546Z,98951.00
2023-10-28T16:55:24.421Z,98959.00
2023-10-28T16:57:53.283Z,98962.00
2023-10-28T17:00:22.145Z,98964.00
2023-10-28T17:02:51.073Z,98970.00
2023-10-28T17:05:20.145Z,98972.00
2023-10-28T17:07:48.943Z,98976.00
2023-10-28T17:10:19.108Z,98977.00
2023-10-28T17:12:47.979Z,98985.00
2023-10-28T17:15:16.948Z,98980.00
2023-10-28T17:17:45.911Z,98982.00
2023-10-28T17:20:14.738Z,98978.00
2023-10-28T17:22:43.497Z,98982.00
2023-10-28T17:25:12.298Z,98982.00
2023-10-28T17:27:42.405Z,98986.00
2023-10-28T17:30:12.147Z,98987.00
2023-10-28T17:32:41.543Z,98990.00
2023-10-28T17:35:13.003Z,98987.00
2023-10-28T17:37:43.827Z,98985.00
2023-10-28T17:40:13.393Z,98995.00
2023-10-28T17:42:43.628Z,98986.00
2023-10-28T17:45:12.984Z,98997.00
2023-10-28T17:47:41.845Z,99000.00
2023-10-28T17:50:11.314Z,99005.00
2023-10-28T17:52:40.200Z,98999.00
2023-10-28T17:55:09.764Z,99003.00
2023-10-28T17:57:38.565Z,99005.00
2023-10-28T18:00:11.164Z,99008.00
2023-10-28T18:02:40.147Z,99005.00
2023-10-28T18:05:09.221Z,99009.00
2023-10-28T18:07:39.949Z,99009.00
2023-10-28T18:10:10.268Z,99005.00
2023-10-28T18:12:39.912Z,99003.00
2023-10-28T18:15:11.108Z,99000.00
2023-10-28T18:17:40.102Z,98996.00
2023-10-28T18:20:11.154Z,99006.00
2023-10-28T18:22:40.002Z,99010.00
2023-10-28T18:25:10.500Z,99006.00
2023-10-28T18:27:39.296Z,99012.00
2023-10-28T18:30:10.916Z,99003.00
2023-10-28T18:32:39.883Z,99010.00
2023-10-28T18:35:11.045Z,99012.00
2023-10-28T18:37:40.320Z,99014.00
2023-10-28T18:40:09.968Z,99007.00
2023-10-28T18:42:39.366Z,99018.00
2023-10-28T18:45:08.761Z,99027.00
2023-10-28T18:47:40.948Z,99023.00
2023-10-28T18:50:10.986Z,99023.00
2023-10-28T18:52:40.945Z,99029.00
2023-10-28T18:55:10.516Z,99033.00
2023-10-28T18:57:39.589Z,99042.00
2023-10-28T19:00:10.782Z,99047.00
2023-10-28T19:02:41.367Z,99050.00
2023-10-28T19:05:10.743Z,99048.00
2023-10-28T19:07:39.530Z,99040.00
2023-10-28T19:10:09.085Z,99044.00
2023-10-28T19:12:38.145Z,99048.00
2023-10-28T19:15:10.128Z,99048.00
2023-10-28T19:17:40.417Z,99057.00
2023-10-28T19:20:10.936Z,99058.00
2023-10-28T19:22:39.737Z,99051.00
2023-10-28T19:25:09.271Z,99050.00
2023-10-28T19:27:38.218Z,99043.00
2023-10-28T19:30:08.129Z,99051.00
2023-10-28T19:32:37.083Z,99048.00
2023-10-28T19:35:10.028Z,99049.00
2023-10-28T19:37:39.215Z,99051.00
2023-10-28T19:40:09.214Z,99059.00
2023-10-28T19:42:38.110Z,99062.00
2023-10-28T19:45:08.450Z,99060.00
2023-10-28T19:47:37.226Z,99061.00
2023-10-28T19:50:08.295Z,99051.00
2023-10-28T19:52:37.061Z,99057.00
2023-10-28T19:55:09.086Z,99060.00
2023-10-28T19:57:39.378Z,99057.00
2023-10-28T20:00:12.574Z,99065.00
2023-10-28T20:02:41.600Z,99063.00
2023-10-28T20:05:13.323Z,99057.00
2023-10-28T20:07:43.040Z,99066.00
2023-10-28T20:10:13.271Z,99071.00
2023-10-28T20:12:42.766Z,99069.00
2023-10-28T20:15:11.986Z,99075.00
2023-10-28T20:17:41.880Z,99071.00
2023-10-28T20:20:14.582Z,99083.00
2023-10-28T20:22:43.672Z,99078.00
2023-10-28T20:25:13.694Z,99073.00
2023-10-28T20:27:43.012Z,99069.00
2023-10-28T20:30:12.978Z,99078.00
2023-10-28T20:32:42.646Z,99078.00
2023-10-28T20:35:13.549Z,99077.00
2023-10-28T20:37:42.800Z,99082.00
2023-10-28T20:40:12.591Z,99081.00
2023-10-28T20:42:42.234Z,99079.00
2023-10-28T20:45:11.983Z,99076.00
2023-10-28T20:47:41.347Z,99091.00
2023-10-28T20:50:10.662Z,99078.00
2023-10-28T20:52:40.989Z,99078.00
2023-10-28T20:55:10.474Z,99086.00
2023-10-28T20:57:42.237Z,99087.00
2023-10-28T21:00:13.482Z,99087.00
2023-10-28T21:02:42.489Z,99076.00
2023-10-28T21:05:12.298Z,99082.00
2023-10-28T21:07:42.592Z,99086.00
2023-10-28T21:10:12.133Z,99087.00
2023-10-28T21:12:41.854Z,99086.00
2023-10-28T21:15:12.314Z,99074.00
2023-10-28T21:17:41.330Z,99071.00
2023-10-28T21:20:12.116Z,99071.00
2023-10-28T21:22:42.697Z,99076.00
2023-10-28T21:25:11.748Z,99073.00
2023-10-28T21:27:41.483Z,99079.00
2023-10-28T21:30:10.790Z,99062.00
2023-10-28T21:32:39.800Z,99072.00
2023-10-28T21:35:09.597Z,99062.00
2023-10-28T21:37:40.534Z,99059.00
2023-10-28T21:40:12.602Z,99066.00
2023-10-28T21:42:41.763Z,99068.00
2023-10-28T21:45:11.417Z,99058.00
2023-10-28T21:47:42.393Z,99044.00
2023-10-28T21:50:12.182Z,99055.00
2023-10-28T21:52:41.020Z,99053.00
2023-10-28T21:55:15.555Z,99058.00
2023-10-28T21:57:44.450Z,99043.00
2023-10-28T22:00:22.274Z,99042.00
2023-10-28T22:02:52.605Z,99048.00
2023-10-28T22:05:21.563Z,99041.00
2023-10-28T22:07:50.600Z,99039.00
2023-10-28T22:10:20.850Z,99042.00
2023-10-28T22:12:50.484Z,99047.00
2023-10-28T22:15:20.602Z,99047.00
2023-10-28T22:17:50.942Z,99047.00
2023-10-28T22:20:20.186Z,99043.00
2023-10-28T22:22:49.657Z,99040.00
2023-10-28T22:25:20.193Z,99037.00
2023-10-28T22:27:53.447Z,99036.00
2023-10-28T22:30:26.883Z,99050.00
2023-10-28T22:32:55.783Z,99042.00
2023-10-28T22:35:26.809Z,99044.00
2023-10-28T22:37:55.636Z,99054.00
2023-10-28T22:40:25.900Z,99050.00
2023-10-28T22:42:54.658Z,99049.00
2023-10-28T22:45:26.359Z,99056.00
2023-10-28T22:47:55.798Z,99062.00
2023-10-28T22:50:24.909Z,99066.00
2023-10-28T22:52:54.685Z,99062.00
2023-10-28T22:55:25.518Z,99057.00
2023-10-28T22:57:54.350Z,99062.00
2023-10-28T23:00:27.973Z,99064.00
2023-10-28T23:02:57.287Z,99066.00
2023-10-28T23:05:26.724Z,99071.00
2023-10-28T23:07:55.703Z,99066.00
2023-10-28T23:10:26.116Z,99067.00
2023-10-28T23:12:55.662Z,99061.00
2023-10-28T23:15:25.456Z,99063.00
2023-10-28T23:17:54.528Z,99060.00
2023-10-28T23:20:25.713Z,99061.00
2023-10-28T23:22:54.688Z,99057.00
2023-10-28T23:25:24.979Z,99054.00
2023-10-28T23:27:54.027Z,99052.00
2023-10-28T23:30:24.758Z,99039.00
2023-10-28T23:32:55.289Z,99047.00
2023-10-28T23:35:25.507Z,99036.00
2023-10-28T23:37:54.442Z,99034.00
2023-10-28T23:40:24.700Z,99048.00
2023-10-28T23:42:58.628Z,99032.00
2023-10-28T23:45:28.764Z,99030.00
2023-10-28T23:47:58.117Z,99025.00
2023-10-28T23:50:27.470Z,99028.00
2023-10-28T23:52:56.324Z,99036.00
2023-10-28T23:55:27.061Z,99033.00
2023-10-28T23:57:55.792Z,99028.00
